createdAt,value
2023-05-03T00:00:27.725Z,54.26
2023-05-03T00:02:54.775Z,54.32
2023-05-03T00:05:21.541Z,54.44
2023-05-03T00:07:48.201Z,54.46
2023-05-03T00:10:17.657Z,54.54
2023-05-03T00:12:44.483Z,54.60
2023-05-03T00:15:11.679Z,54.64
2023-05-03T00:17:38.786Z,54.65
2023-05-03T00:20:06.493Z,54.78
2023-05-03T00:22:33.225Z,54.83
2023-05-03T00:25:00.663Z,54.86
2023-05-03T00:27:28.825Z,54.91
2023-05-03T00:29:55.511Z,54.89
2023-05-03T00:32:22.923Z,54.89
2023-05-03T00:34:55.032Z,54.93
2023-05-03T00:37:22.817Z,55.00
2023-05-03T00:39:49.693Z,55.15
2023-05-03T00:42:16.899Z,55.09
2023-05-03T00:44:43.623Z,55.06
2023-05-03T00:47:10.990Z,55.15
2023-05-03T00:49:38.703Z,55.19
2023-05-03T00:52:06.725Z,55.25
2023-05-03T00:54:35.228Z,55.21
2023-05-03T00:57:04.468Z,55.25
2023-05-03T00:59:32.634Z,55.41
2023-05-03T01:01:59.293Z,55.51
2023-05-03T01:04:26.854Z,55.51
2023-05-03T01:06:59.490Z,55.56
2023-05-03T01:09:34.565Z,55.59
2023-05-03T01:12:19.519Z,55.67
2023-05-03T01:15:08.697Z,55.69
2023-05-03T01:17:57.927Z,55.81
2023-05-03T01:20:28.378Z,55.78
2023-05-03T01:22:58.346Z,55.83
2023-05-03T01:25:26.950Z,55.77
2023-05-03T01:27:53.497Z,55.79
2023-05-03T01:30:23.544Z,55.84
2023-05-03T01:33:16.945Z,55.94
2023-05-03T01:35:52.671Z,55.89
2023-05-03T01:38:21.425Z,55.91
2023-05-03T01:40:57.697Z,55.81
2023-05-03T01:43:26.285Z,55.78
2023-05-03T01:45:52.912Z,55.78
2023-05-03T01:48:19.880Z,55.67
2023-05-03T01:50:46.909Z,55.63
2023-05-03T01:53:13.665Z,55.78
2023-05-03T01:55:41.457Z,55.77
2023-05-03T01:58:08.019Z,55.78
2023-05-03T02:00:34.616Z,55.84
2023-05-03T02:03:01.222Z,55.84
2023-05-03T02:05:27.894Z,55.99
2023-05-03T02:07:54.571Z,56.04
2023-05-03T02:10:21.308Z,56.06
2023-05-03T02:12:48.203Z,56.07
2023-05-03T02:15:15.085Z,56.16
2023-05-03T02:17:43.845Z,56.35
2023-05-03T02:20:10.945Z,56.42
2023-05-03T02:22:37.541Z,56.51
2023-05-03T02:25:05.030Z,56.61
2023-05-03T02:27:31.682Z,56.65
2023-05-03T02:29:58.223Z,56.62
2023-05-03T02:32:25.993Z,56.66
2023-05-03T02:34:52.751Z,56.67
2023-05-03T02:37:19.676Z,56.73
2023-05-03T02:39:46.678Z,56.76
2023-05-03T02:42:13.472Z,56.84
2023-05-03T02:44:40.281Z,56.92
2023-05-03T02:47:08.396Z,56.91
2023-05-03T02:49:35.919Z,56.92
2023-05-03T02:52:02.503Z,56.92
2023-05-03T02:54:29.085Z,57.04
2023-05-03T02:56:56.698Z,56.95
2023-05-03T02:59:23.376Z,56.96
2023-05-03T03:01:50.865Z,57.01
2023-05-03T03:04:17.565Z,56.91
2023-05-03T03:06:44.161Z,57.01
2023-05-03T03:09:12.530Z,56.95
2023-05-03T03:11:39.769Z,56.97
2023-05-03T03:14:07.923Z,56.96
2023-05-03T03:16:35.349Z,56.88
2023-05-03T03:19:01.922Z,56.88
2023-05-03T03:21:29.819Z,56.83
2023-05-03T03:23:56.831Z,56.93
2023-05-03T03:26:23.551Z,56.98
2023-05-03T03:28:51.915Z,56.96
2023-05-03T03:31:18.564Z,57.00
2023-05-03T03:33:46.296Z,57.09
2023-05-03T03:36:14.555Z,57.25
2023-05-03T03:38:41.423Z,57.27
2023-05-03T03:41:08.615Z,57.25
2023-05-03T03:43:35.919Z,57.25
2023-05-03T03:46:03.471Z,57.22
2023-05-03T03:48:30.256Z,57.32
2023-05-03T03:50:56.930Z,57.44
2023-05-03T03:53:25.186Z,57.36
2023-05-03T03:55:51.733Z,57.34
2023-05-03T04:00:25.284Z,57.34
2023-05-03T04:02:56.247Z,57.33
2023-05-03T04:05:23.008Z,57.50
2023-05-03T04:07:49.965Z,57.49
2023-05-03T04:10:17.170Z,57.44
2023-05-03T04:12:43.995Z,57.41
2023-05-03T04:15:11.817Z,57.33
2023-05-03T04:17:39.546Z,57.32
2023-05-03T04:20:11.142Z,57.32
2023-05-03T04:22:40.252Z,57.20
2023-05-03T04:25:11.007Z,57.29
2023-05-03T04:27:38.259Z,57.12
2023-05-03T04:30:06.552Z,57.13
2023-05-03T04:32:37.774Z,57.18
2023-05-03T04:35:12.560Z,57.29
2023-05-03T04:37:42.763Z,57.23
2023-05-03T04:40:12.107Z,57.17
2023-05-03T04:42:42.496Z,57.20
2023-05-03T04:45:10.887Z,57.17
2023-05-03T04:47:37.663Z,57.24
2023-05-03T04:50:04.725Z,57.23
2023-05-03T04:52:31.873Z,57.15
2023-05-03T04:54:58.441Z,57.14
2023-05-03T04:57:26.058Z,57.14
2023-05-03T04:59:54.135Z,57.24
2023-05-03T05:02:21.569Z,57.18
2023-05-03T05:04:48.782Z,57.00
2023-05-03T05:07:15.586Z,56.96
2023-05-03T05:09:43.526Z,56.85
2023-05-03T05:12:11.501Z,56.94
2023-05-03T05:14:39.918Z,56.90
2023-05-03T05:17:07.951Z,56.84
2023-05-03T05:19:35.883Z,56.85
2023-05-03T05:22:02.670Z,56.84
2023-05-03T05:24:37.973Z,56.86
2023-05-03T05:27:05.096Z,56.75
2023-05-03T05:29:31.700Z,56.62
2023-05-03T05:31:59.775Z,56.55
2023-05-03T05:34:26.706Z,56.45
2023-05-03T05:36:54.640Z,56.40
2023-05-03T05:39:23.429Z,56.33
2023-05-03T05:41:50.601Z,56.29
2023-05-03T05:44:17.180Z,56.22
2023-05-03T05:46:44.891Z,56.26
2023-05-03T05:49:11.546Z,56.28
2023-05-03T05:51:39.448Z,56.42
2023-05-03T05:54:07.816Z,56.32
2023-05-03T05:56:34.726Z,56.19
2023-05-03T05:59:01.414Z,56.27
2023-05-03T06:01:28.583Z,56.15
2023-05-03T06:03:56.419Z,56.00
2023-05-03T06:06:23.228Z,56.00
2023-05-03T06:08:51.492Z,55.93
2023-05-03T06:11:18.235Z,55.99
2023-05-03T06:13:45.135Z,55.86
2023-05-03T06:16:14.044Z,55.78
2023-05-03T06:18:40.690Z,55.64
2023-05-03T06:21:07.671Z,55.55
2023-05-03T06:23:35.350Z,55.55
2023-05-03T06:26:02.773Z,55.50
2023-05-03T06:28:29.708Z,55.61
2023-05-03T06:30:56.380Z,55.71
2023-05-03T06:33:23.395Z,55.57
2023-05-03T06:35:51.687Z,55.56
2023-05-03T06:38:19.051Z,55.78
2023-05-03T06:40:46.531Z,55.71
2023-05-03T06:43:14.233Z,55.63
2023-05-03T06:45:53.465Z,55.63
2023-05-03T06:48:21.313Z,55.53
2023-05-03T06:50:48.369Z,55.53
2023-05-03T06:53:15.150Z,55.05
2023-05-03T06:55:45.504Z,55.08
2023-05-03T06:58:12.172Z,55.28
2023-05-03T07:00:41.716Z,54.42
2023-05-03T07:03:08.470Z,53.56
2023-05-03T07:05:35.193Z,52.98
2023-05-03T07:08:01.799Z,52.48
2023-05-03T07:10:31.274Z,51.96
2023-05-03T07:12:58.421Z,51.02
2023-05-03T07:15:25.028Z,50.15
2023-05-03T07:17:51.664Z,49.74
2023-05-03T07:20:18.432Z,49.27
2023-05-03T07:22:45.157Z,48.82
2023-05-03T07:25:14.243Z,48.39
2023-05-03T07:27:41.011Z,47.61
2023-05-03T07:30:08.209Z,47.64
2023-05-03T07:32:34.914Z,47.81
2023-05-03T07:35:01.575Z,46.65
2023-05-03T07:37:28.174Z,45.97
2023-05-03T07:39:54.780Z,45.88
2023-05-03T07:42:21.308Z,45.68
2023-05-03T07:44:47.940Z,44.55
2023-05-03T07:47:14.479Z,43.81
2023-05-03T07:49:41.190Z,43.30
2023-05-03T07:52:07.836Z,42.87
2023-05-03T07:54:34.472Z,42.81
2023-05-03T07:57:01.358Z,42.66
2023-05-03T07:59:27.942Z,42.06
2023-05-03T08:01:54.559Z,41.40
2023-05-03T08:04:21.838Z,41.65
2023-05-03T08:06:49.163Z,41.05
2023-05-03T08:09:15.802Z,41.45
2023-05-03T08:11:44.098Z,41.43
2023-05-03T08:14:11.395Z,40.97
2023-05-03T08:16:38.789Z,40.67
2023-05-03T08:19:05.395Z,40.44
2023-05-03T08:21:33.532Z,40.55
2023-05-03T08:24:00.893Z,40.77
2023-05-03T08:26:29.807Z,40.25
2023-05-03T08:28:56.613Z,38.81
2023-05-03T08:31:23.373Z,38.30
2023-05-03T08:33:50.053Z,38.21
2023-05-03T08:36:16.830Z,38.38
2023-05-03T08:38:43.466Z,37.81
2023-05-03T08:41:26.142Z,37.36
2023-05-03T08:43:54.510Z,36.70
2023-05-03T08:46:21.590Z,36.36
2023-05-03T08:48:49.750Z,36.76
2023-05-03T08:51:18.129Z,37.28
2023-05-03T08:53:48.529Z,37.78
2023-05-03T08:56:34.751Z,37.60
2023-05-03T08:59:07.506Z,37.31
2023-05-03T09:01:37.262Z,36.92
2023-05-03T09:04:04.555Z,36.22
2023-05-03T09:06:33.305Z,34.90
2023-05-03T09:09:01.756Z,35.32
2023-05-03T09:11:30.962Z,35.81
2023-05-03T09:14:18.249Z,36.72
2023-05-03T09:16:47.285Z,36.29
2023-05-03T09:19:14.890Z,35.88
2023-05-03T09:21:44.095Z,35.23
2023-05-03T09:24:15.961Z,35.70
2023-05-03T09:26:43.614Z,35.87
2023-05-03T09:29:10.273Z,35.86
2023-05-03T09:31:37.930Z,35.48
2023-05-03T09:34:22.961Z,34.78
2023-05-03T09:36:49.619Z,34.62
2023-05-03T09:39:19.848Z,34.49
2023-05-03T09:41:47.100Z,34.39
2023-05-03T09:44:13.856Z,33.83
2023-05-03T09:47:00.582Z,33.48
2023-05-03T09:49:27.504Z,33.60
2023-05-03T09:51:55.100Z,32.85
2023-05-03T09:54:25.682Z,32.63
2023-05-03T09:56:55.419Z,32.38
2023-05-03T09:59:22.007Z,31.55
2023-05-03T10:01:49.054Z,31.13
2023-05-03T10:04:19.812Z,30.79
2023-05-03T10:06:49.352Z,31.43
2023-05-03T10:09:20.838Z,31.66
2023-05-03T10:11:53.266Z,32.12
2023-05-03T10:14:22.981Z,32.13
2023-05-03T10:16:53.305Z,31.60
2023-05-03T10:19:27.495Z,31.28
2023-05-03T10:22:07.738Z,31.31
2023-05-03T10:24:36.183Z,30.84
2023-05-03T10:27:07.136Z,30.27
2023-05-03T10:29:34.493Z,29.70
2023-05-03T10:32:02.331Z,29.24
2023-05-03T10:34:33.965Z,29.00
2023-05-03T10:37:09.693Z,29.39
2023-05-03T10:39:37.229Z,29.77
2023-05-03T10:42:08.739Z,29.58
2023-05-03T10:44:51.282Z,29.47
2023-05-03T10:47:23.634Z,29.42
2023-05-03T10:50:16.232Z,29.09
2023-05-03T10:52:42.976Z,28.45
2023-05-03T10:55:10.740Z,28.06
2023-05-03T10:57:40.327Z,28.44
2023-05-03T11:00:36.990Z,28.58
2023-05-03T11:03:31.449Z,28.88
2023-05-03T11:05:58.274Z,29.25
2023-05-03T11:08:25.994Z,28.94
2023-05-03T11:11:00.893Z,28.33
2023-05-03T11:13:28.055Z,28.16
2023-05-03T11:15:56.367Z,28.09
2023-05-03T11:18:27.586Z,27.78
2023-05-03T11:20:54.439Z,27.65
2023-05-03T11:23:25.513Z,27.90
2023-05-03T11:25:52.536Z,28.02
2023-05-03T11:28:19.157Z,28.51
2023-05-03T11:30:46.964Z,27.97
2023-05-03T11:33:13.659Z,27.17
2023-05-03T11:35:40.592Z,27.07
2023-05-03T11:38:07.210Z,27.23
2023-05-03T11:40:33.833Z,27.29
2023-05-03T11:43:01.023Z,26.97
2023-05-03T11:45:45.994Z,26.90
2023-05-03T11:48:14.099Z,27.05
2023-05-03T11:50:47.071Z,27.00
2023-05-03T11:53:15.356Z,26.92
2023-05-03T11:55:43.847Z,26.93
2023-05-03T11:58:26.797Z,27.03
2023-05-03T12:00:55.293Z,27.05
2023-05-03T12:03:27.636Z,27.46
2023-05-03T12:05:57.505Z,27.65
2023-05-03T12:08:35.629Z,26.92
2023-05-03T12:11:07.477Z,26.84
2023-05-03T12:13:39.853Z,27.15
2023-05-03T12:18:57.477Z,26.92
2023-05-03T12:23:56.963Z,26.84
2023-05-03T12:26:25.388Z,27.12
2023-05-03T12:28:55.956Z,26.94
2023-05-03T12:31:23.696Z,26.92
2023-05-03T12:34:12.893Z,26.56
2023-05-03T12:36:38.492Z,26.42
2023-05-03T12:39:10.139Z,26.39
2023-05-03T12:44:10.328Z,26.04
2023-05-03T12:46:38.936Z,25.98
2023-05-03T12:49:07.930Z,26.09
2023-05-03T12:51:35.636Z,26.16
2023-05-03T12:54:03.658Z,26.23
2023-05-03T12:56:32.563Z,26.30
2023-05-03T12:59:26.838Z,26.44
2023-05-03T13:03:08.072Z,26.63
2023-05-03T13:04:56.768Z,26.87
2023-05-03T13:07:28.212Z,27.05
2023-05-03T13:12:27.360Z,26.63
2023-05-03T13:14:56.645Z,26.41
2023-05-03T13:17:23.625Z,26.59
2023-05-03T13:19:51.490Z,26.49
2023-05-03T13:22:18.547Z,26.29
2023-05-03T13:24:47.030Z,26.25
2023-05-03T13:27:14.509Z,26.29
2023-05-03T13:29:41.408Z,26.27
2023-05-03T13:32:08.556Z,26.37
2023-05-03T13:34:35.625Z,26.56
2023-05-03T13:37:04.317Z,26.65
2023-05-03T13:39:32.065Z,26.88
2023-05-03T13:41:59.073Z,26.92
2023-05-03T13:44:26.339Z,27.12
2023-05-03T13:46:53.512Z,27.08
2023-05-03T13:49:20.705Z,27.31
2023-05-03T13:51:48.188Z,27.46
2023-05-03T13:54:15.099Z,27.38
2023-05-03T13:56:43.108Z,27.73
2023-05-03T13:59:13.931Z,27.59
2023-05-03T14:01:41.261Z,27.53
2023-05-03T14:04:08.209Z,27.79
2023-05-03T14:06:34.981Z,27.70
2023-05-03T14:09:02.834Z,27.69
2023-05-03T14:11:30.848Z,27.22
2023-05-03T14:13:58.881Z,27.32
2023-05-03T14:18:56.981Z,27.48
2023-05-03T14:21:23.849Z,27.55
2023-05-03T14:23:51.155Z,27.66
2023-05-03T14:26:19.556Z,27.75
2023-05-03T14:28:46.587Z,27.70
2023-05-03T14:31:13.613Z,27.79
2023-05-03T14:33:40.293Z,28.04
2023-05-03T14:36:10.837Z,28.11
2023-05-03T14:38:37.604Z,28.41
2023-05-03T14:41:04.485Z,28.58
2023-05-03T14:43:31.558Z,28.74
2023-05-03T14:45:58.304Z,28.84
2023-05-03T14:48:24.896Z,28.88
2023-05-03T14:50:52.482Z,28.87
2023-05-03T14:53:19.328Z,28.65
2023-05-03T14:55:46.763Z,28.59
2023-05-03T14:58:13.635Z,28.65
2023-05-03T15:00:41.493Z,28.72
2023-05-03T15:03:13.119Z,28.94
2023-05-03T15:05:46.887Z,28.98
2023-05-03T15:08:15.469Z,29.02
2023-05-03T15:10:44.520Z,28.89
2023-05-03T15:13:12.612Z,28.96
2023-05-03T15:15:40.767Z,28.80
2023-05-03T15:18:11.435Z,28.77
2023-05-03T15:20:39.140Z,28.79
2023-05-03T15:23:06.318Z,28.79
2023-05-03T15:25:33.098Z,28.72
2023-05-03T15:28:03.716Z,28.84
2023-05-03T15:30:32.187Z,28.94
2023-05-03T15:32:59.247Z,28.88
2023-05-03T15:35:26.021Z,28.85
2023-05-03T15:37:52.750Z,28.69
2023-05-03T15:40:23.736Z,28.96
2023-05-03T15:42:52.003Z,29.22
2023-05-03T15:45:18.991Z,29.28
2023-05-03T15:47:46.364Z,29.25
2023-05-03T15:50:13.409Z,29.22
2023-05-03T15:52:40.543Z,29.30
2023-05-03T15:55:09.477Z,29.31
2023-05-03T15:57:36.184Z,29.51
2023-05-03T16:00:13.554Z,29.70
2023-05-03T16:02:40.669Z,29.55
2023-05-03T16:05:07.813Z,29.74
2023-05-03T16:07:34.561Z,30.08
2023-05-03T16:10:01.580Z,30.17
2023-05-03T16:12:28.500Z,30.14
2023-05-03T16:14:55.678Z,29.89
2023-05-03T16:17:22.450Z,29.82
2023-05-03T16:19:49.057Z,29.84
2023-05-03T16:22:16.932Z,29.79
2023-05-03T16:24:43.556Z,29.78
2023-05-03T16:27:10.296Z,30.12
2023-05-03T16:29:37.741Z,29.94
2023-05-03T16:32:06.435Z,30.05
2023-05-03T16:34:33.048Z,29.96
2023-05-03T16:37:00.902Z,30.06
2023-05-03T16:39:27.532Z,29.99
2023-05-03T16:41:54.334Z,29.94
2023-05-03T16:44:21.331Z,29.97
2023-05-03T16:46:48.890Z,30.21
2023-05-03T16:49:16.129Z,30.03
2023-05-03T16:51:43.263Z,30.08
2023-05-03T16:54:10.045Z,30.27
2023-05-03T16:56:37.486Z,30.24
2023-05-03T16:59:04.179Z,30.45
2023-05-03T17:01:31.009Z,30.48
2023-05-03T17:03:57.754Z,30.42
2023-05-03T17:06:24.376Z,30.38
2023-05-03T17:08:50.966Z,30.54
2023-05-03T17:11:17.923Z,30.73
2023-05-03T17:13:44.609Z,30.51
2023-05-03T17:16:15.295Z,30.49
2023-05-03T17:18:42.209Z,30.58
2023-05-03T17:21:10.092Z,30.66
2023-05-03T17:23:38.765Z,30.65
2023-05-03T17:26:08.670Z,30.73
2023-05-03T17:28:35.850Z,30.83
2023-05-03T17:31:03.416Z,31.02
2023-05-03T17:33:30.103Z,31.04
2023-05-03T17:35:57.080Z,30.95
2023-05-03T17:38:23.939Z,30.95
2023-05-03T17:40:50.845Z,31.12
2023-05-03T17:43:17.712Z,31.14
2023-05-03T17:45:47.501Z,31.28
2023-05-03T17:48:14.729Z,31.30
2023-05-03T17:50:43.350Z,31.38
2023-05-03T17:53:10.343Z,31.44
2023-05-03T17:55:40.971Z,31.55
2023-05-03T17:58:09.426Z,31.71
2023-05-03T18:00:36.217Z,31.72
2023-05-03T18:03:03.152Z,31.91
2023-05-03T18:05:36.811Z,32.00
2023-05-03T18:08:03.789Z,31.98
2023-05-03T18:10:31.204Z,32.02
2023-05-03T18:12:58.259Z,32.12
2023-05-03T18:15:25.279Z,32.24
2023-05-03T18:17:52.954Z,32.22
2023-05-03T18:20:19.891Z,32.40
2023-05-03T18:22:46.524Z,32.55
2023-05-03T18:25:13.688Z,32.67
2023-05-03T18:27:40.381Z,32.74
2023-05-03T18:30:07.804Z,32.95
2023-05-03T18:32:34.853Z,33.12
2023-05-03T18:35:02.526Z,33.28
2023-05-03T18:37:29.556Z,33.47
2023-05-03T18:39:56.345Z,33.60
2023-05-03T18:42:23.080Z,33.82
2023-05-03T18:44:49.760Z,34.11
2023-05-03T18:47:20.617Z,34.31
2023-05-03T18:49:52.540Z,34.48
2023-05-03T18:52:23.532Z,34.63
2023-05-03T18:54:50.849Z,34.87
2023-05-03T18:57:17.693Z,35.02
2023-05-03T18:59:56.588Z,35.20
2023-05-03T19:02:25.324Z,35.43
2023-05-03T19:04:52.725Z,35.64
2023-05-03T19:07:19.719Z,35.78
2023-05-03T19:09:46.461Z,35.99
2023-05-03T19:12:13.741Z,36.24
2023-05-03T19:14:43.341Z,36.38
2023-05-03T19:17:10.167Z,36.59
2023-05-03T19:19:36.924Z,36.72
2023-05-03T19:22:03.677Z,36.79
2023-05-03T19:24:30.501Z,37.00
2023-05-03T19:26:57.402Z,37.14
2023-05-03T19:29:23.998Z,37.37
2023-05-03T19:31:50.585Z,37.55
2023-05-03T19:34:17.812Z,37.66
2023-05-03T19:36:44.534Z,37.82
2023-05-03T19:39:14.181Z,37.98
2023-05-03T19:41:41.560Z,38.18
2023-05-03T19:44:09.259Z,38.42
2023-05-03T19:46:36.493Z,38.56
2023-05-03T19:49:03.237Z,38.82
2023-05-03T19:51:30.062Z,38.87
2023-05-03T19:53:57.689Z,39.05
2023-05-03T19:56:25.154Z,39.17
2023-05-03T19:58:51.854Z,39.37
2023-05-03T20:01:18.754Z,39.49
2023-05-03T20:03:46.801Z,39.78
2023-05-03T20:06:14.320Z,39.77
2023-05-03T20:08:41.273Z,39.96
2023-05-03T20:11:08.050Z,40.17
2023-05-03T20:13:34.939Z,40.32
2023-05-03T20:16:05.353Z,40.44
2023-05-03T20:18:32.050Z,40.54
2023-05-03T20:20:58.826Z,40.70
2023-05-03T20:23:26.915Z,41.04
2023-05-03T20:25:53.766Z,41.01
2023-05-03T20:28:20.585Z,41.09
2023-05-03T20:30:47.667Z,41.25
2023-05-03T20:33:14.796Z,41.46
2023-05-03T20:35:41.620Z,41.77
2023-05-03T20:38:08.337Z,41.79
2023-05-03T20:40:36.263Z,41.91
2023-05-03T20:43:06.194Z,42.01
2023-05-03T20:45:32.982Z,41.95
2023-05-03T20:47:59.718Z,42.04
2023-05-03T20:50:26.483Z,42.41
2023-05-03T20:52:55.008Z,42.65
2023-05-03T20:55:21.783Z,42.83
2023-05-03T20:57:48.684Z,42.78
2023-05-03T21:00:16.005Z,42.97
2023-05-03T21:02:43.443Z,43.00
2023-05-03T21:05:11.465Z,43.25
2023-05-03T21:07:38.754Z,43.40
2023-05-03T21:10:07.673Z,43.61
2023-05-03T21:12:34.921Z,43.60
2023-05-03T21:15:03.127Z,43.71
2023-05-03T21:17:29.837Z,43.82
2023-05-03T21:19:57.172Z,43.90
2023-05-03T21:22:24.077Z,44.19
2023-05-03T21:24:51.138Z,44.21
2023-05-03T21:27:19.374Z,44.39
2023-05-03T21:29:46.508Z,44.44
2023-05-03T21:32:13.469Z,44.36
2023-05-03T21:34:40.160Z,44.49
2023-05-03T21:37:07.450Z,44.64
2023-05-03T21:39:34.189Z,44.73
2023-05-03T21:42:00.977Z,45.00
2023-05-03T21:44:27.823Z,45.04
2023-05-03T21:46:54.535Z,45.21
2023-05-03T21:49:21.559Z,45.20
2023-05-03T21:51:48.320Z,45.31
2023-05-03T21:54:17.159Z,45.40
2023-05-03T21:56:43.882Z,45.56
2023-05-03T21:59:10.505Z,45.66
2023-05-03T22:01:38.240Z,45.56
2023-05-03T22:04:06.206Z,45.67
2023-05-03T22:06:33.248Z,45.77
2023-05-03T22:08:59.827Z,45.99
2023-05-03T22:11:26.419Z,46.12
2023-05-03T22:14:06.813Z,46.15
2023-05-03T22:16:38.944Z,46.36
2023-05-03T22:19:05.704Z,46.39
2023-05-03T22:21:32.608Z,46.39
2023-05-03T22:23:59.263Z,46.48
2023-05-03T22:26:26.075Z,46.57
2023-05-03T22:28:52.637Z,46.65
2023-05-03T22:31:19.595Z,46.84
2023-05-03T22:33:47.229Z,46.72
2023-05-03T22:36:14.658Z,46.87
2023-05-03T22:38:43.084Z,47.01
2023-05-03T22:41:10.315Z,47.35
2023-05-03T22:43:37.062Z,47.50
2023-05-03T22:46:04.149Z,47.56
2023-05-03T22:48:32.558Z,47.89
2023-05-03T22:51:00.180Z,47.92
2023-05-03T22:53:26.841Z,47.91
2023-05-03T22:56:01.542Z,48.09
2023-05-03T22:58:28.656Z,48.17
2023-05-03T23:00:56.546Z,48.07
2023-05-03T23:03:23.426Z,48.04
2023-05-03T23:05:53.301Z,48.17
2023-05-03T23:08:20.262Z,48.50
2023-05-03T23:10:47.283Z,48.62
2023-05-03T23:13:13.908Z,48.71
2023-05-03T23:15:40.525Z,48.82
2023-05-03T23:18:09.649Z,48.81
2023-05-03T23:20:36.655Z,48.81
2023-05-03T23:23:03.286Z,48.90
2023-05-03T23:25:29.955Z,48.87
2023-05-03T23:27:56.702Z,49.15
2023-05-03T23:30:24.005Z,49.31
2023-05-03T23:32:51.235Z,49.41
2023-05-03T23:35:18.533Z,49.51
2023-05-03T23:37:45.096Z,49.60
2023-05-03T23:40:13.095Z,49.70
2023-05-03T23:42:41.479Z,49.65
2023-05-03T23:45:09.801Z,49.92
2023-05-03T23:47:37.040Z,49.96
2023-05-03T23:50:05.115Z,50.01
2023-05-03T23:52:31.988Z,50.17
2023-05-03T23:54:58.565Z,50.22
2023-05-03T23:57:25.233Z,50.09
2023-05-03T23:59:51.833Z,50.25
